Terminal Aerodrome Forecast
Issued by NWS Anchorage, AK

Home | Current Version | Previous Version | Text Only | Print | Product List | Glossary On
Versions: 1 2 3 4 5 6 7 8 9 10 11 12 13 14 15 16 17 18 19 20 21 22 23 24 25 26 27 28 29 30 31 32 33 34 35 36 37 38 39 40 41 42 43 44 45 46
000
FTAK31 PANC 281120
TAFANC
TAF
PANC 281120Z 2812/2918 14011KT P6SM FEW050 BKN110
      TEMPO 2812/2814 14010G20KT
     FM282100 16008KT P6SM VCSH SCT050 OVC080
     FM290000 VRB05KT P6SM -RA SCT040 OVC060
     FM291300 36007KT P6SM VCSH SCT060 OVC100=

USA.gov is the U.S. government's official web portal to all federal, state and local government web resources and services.